Barrow, AK

2:33 PM AKDT on April 26, 2015 (GMT -0800)
Nuiqsut | | Change Station
CLOSE
Current Station
Airport
Location: Nuiqsut,
Elevation: 39 ft
Nearby Weather Stations

Elev 39 ft 70.21 °N, 150.99 °W | Updated 40 minutes ago

Partly Cloudy
Partly Cloudy
8 °F
Feels Like -3 °F
N
7
Wind Variable Wind from WSW

Today
High -- | Low -- °F
--% Chance of Precip.
Yesterday
High -- | Low -- °F
Precip. -- in
5:00 AM 11:07 PM
First Quarter, 59% visible
Pressure 30.01 in
Visibility 10.0 miles
Clouds Few 300 ft
Windchill -3 °F
Dew Point 3 °F
Humidity 80%
Rainfall 0.00 in
Snow Depth Not available.
UV 3 out of 12
Pollen Not available.
Air Quality Not available.
Flu Activity Sporadic
METAR PAQT 262153Z AUTO 25006KT 10SM FEW003 M13/M16 A3001 RMK UPB16E27 SLP163 P0000 T11331161 TSNO $ VIA AUTODIAL

More Conditions Fewer Conditions

Pressure 30.01 in
Visibility 10.0 miles
Clouds Few 300 ft
Windchill -3 °F
Dew Point 3 °F
Humidity 80%
Rainfall 0.00 in
Snow Depth Not available.
UV 3 out of 12
Pollen Not available.
Air Quality Not available.
Flu Activity Sporadic
METAR PAQT 262153Z AUTO 25006KT 10SM FEW003 M13/M16 A3001 RMK UPB16E27 SLP163 P0000 T11331161 TSNO $ VIA AUTODIAL

More Conditions Fewer Conditions

10-Day Weather Forecast

Almanac

Astronomy

Apr. 26, 2015 Rise Set
Actual Time
Civil Twilight
Nautical Twilight
Astronomical Twilight
Moon
Length of Visible Light
Length of Day
Tomorrow will be .
, % of the Moon is Illuminated

Today's Extremes

State Highs State Lows

Community

WunderPhotos

Upload Photos

1,817,149 photos uploaded!

WunderBlogs® & News

Nearby

Air Quality

  Air Quality AQ Index Pollutant
Not available.

Snow Depth

Station Depth Elevation

Earthquake Activity

City Distance Mag. Time & Date
Minimum magnitude displayed is 2.5.

Coastal Water Temperatures

Place Temperature

Stations

Nearby Weather Stations

Station Location Temp. Windchill Dew Point Humidity Wind Precip. Elev Updated Type